Time;durP1;ratioP1;P1;durP2;ratioP2;P2;SDS_P1;SDS_P2;PMS_P1;PMS_P2;Temp;Humidity;BMP_temperature;BMP_pressure;BME280_temperature;BME280_humidity;BME280_pressure;Samples;Min_cycle;Max_cycle;Signal;HPM_P1;HPM_P2
2022/04/04 00:00:48;;;;;;;;;;;-3.00;99.90;;;;;;5098482;28;19930;-70
2022/04/04 00:03:15;;;;;;;;;;;-3.00;99.90;;;;;;5092550;28;19924;-70
2022/04/04 00:05:43;;;;;;;;;;;-3.00;99.90;;;;;;5104417;28;19924;-70
2022/04/04 00:08:10;;;;;;;;;;;-3.00;99.90;;;;;;5101269;28;20010;-70
2022/04/04 00:10:37;;;;;;;;;;;-2.90;99.90;;;;;;5089256;28;20001;-70
2022/04/04 00:13:04;;;;;;;;;;;-2.90;99.90;;;;;;5080877;28;20022;-70
2022/04/04 00:15:31;;;;;;;;;;;-2.90;99.90;;;;;;5105758;28;19963;-70
2022/04/04 00:18:04;;;;;;;;;;;-3.00;99.90;;;;;;5085723;28;20030;-70
2022/04/04 00:20:31;;;;;;;;;;;-2.90;99.90;;;;;;5088061;28;19928;-70
2022/04/04 00:22:58;;;;;;;;;;;-3.00;99.90;;;;;;5094934;28;20018;-70
2022/04/04 00:25:25;;;;;;;;;;;-3.00;99.90;;;;;;5106509;28;19931;-70
2022/04/04 00:27:51;;;;;;;;;;;-3.00;99.90;;;;;;5100921;28;20058;-70
2022/04/04 00:30:18;;;;;;;;;;;-3.00;99.90;;;;;;5086906;28;20378;-70
2022/04/04 00:32:45;;;;;;;;;;;-2.90;99.90;;;;;;5100507;28;20022;-70
2022/04/04 00:35:11;;;;;;;;;;;-2.90;99.90;;;;;;5108164;28;19924;-70
2022/04/04 00:37:38;;;;;;;;;;;-3.00;99.90;;;;;;5101061;28;19924;-70
2022/04/04 00:40:06;;;;;;;;;;;-3.00;99.90;;;;;;5102437;28;19963;-69
2022/04/04 00:42:32;;;;;;;;;;;-3.00;99.90;;;;;;5102128;28;19924;-70
2022/04/04 00:45:00;;;;;;;;;;;-3.10;99.90;;;;;;5099376;28;19932;-70
2022/04/04 00:47:26;;;;;;;;;;;-3.10;99.90;;;;;;5077691;28;19924;-70
2022/04/04 00:49:53;;;;;;;;;;;-3.10;99.90;;;;;;5104528;28;19924;-70
2022/04/04 00:52:20;;;;;;;;;;;-3.00;99.90;;;;;;5095932;28;20932;-70
2022/04/04 00:54:46;;;;;;;;;;;-3.00;99.90;;;;;;5087794;28;19924;-70
2022/04/04 00:57:16;;;;;;;;;;;-3.10;99.90;;;;;;5100540;28;21556;-70
2022/04/04 00:59:47;;;;;;;;;;;-3.10;99.90;;;;;;5100649;28;20345;-69
2022/04/04 01:02:14;;;;;;;;;;;-3.20;99.90;;;;;;5094614;28;19927;-70
2022/04/04 01:04:41;;;;;;;;;;;-3.20;99.90;;;;;;5096192;27;19969;-69
2022/04/04 01:07:08;;;;;;;;;;;-3.30;99.90;;;;;;5102951;28;19955;-70
2022/04/04 01:09:35;;;;;;;;;;;-3.30;99.90;;;;;;5101218;28;19923;-70
2022/04/04 01:12:09;;;;;;;;;;;-3.40;99.90;;;;;;5101694;28;19931;-70
2022/04/04 01:14:36;;;;;;;;;;;-3.40;99.90;;;;;;5100002;27;20014;-69
2022/04/04 01:17:03;;;;;;;;;;;-3.40;99.90;;;;;;5095740;28;19990;-70
2022/04/04 01:19:30;;;;;;;;;;;-3.40;99.90;;;;;;5097906;28;19970;-70
2022/04/04 01:21:57;;;;;;;;;;;-3.40;99.90;;;;;;5108578;28;19924;-70
2022/04/04 01:24:24;;;;;;;;;;;-3.40;99.90;;;;;;5077000;28;19974;-70
2022/04/04 01:26:52;;;;;;;;;;;-3.40;99.90;;;;;;5105023;28;19975;-69
2022/04/04 01:29:22;;;;;;;;;;;-3.40;99.90;;;;;;5099831;28;20291;-70
2022/04/04 01:31:50;;;;;;;;;;;-3.50;99.90;;;;;;5101477;28;19993;-69
2022/04/04 01:34:18;;;;;;;;;;;-3.40;99.90;;;;;;5096618;28;19977;-69
2022/04/04 01:36:45;;;;;;;;;;;-3.40;99.90;;;;;;5088942;28;20014;-69
2022/04/04 01:39:12;;;;;;;;;;;-3.40;99.90;;;;;;5110102;28;20028;-69
2022/04/04 01:41:38;;;;;;;;;;;-3.40;99.90;;;;;;5107178;28;19928;-69
2022/04/04 01:44:05;;;;;;;;;;;-3.40;99.90;;;;;;5102616;28;20320;-69
2022/04/04 01:46:32;;;;;;;;;;;-3.60;99.90;;;;;;5104321;28;19924;-69
2022/04/04 01:49:00;;;;;;;;;;;-3.60;99.90;;;;;;5099157;28;20367;-69
2022/04/04 01:51:27;;;;;;;;;;;-3.60;99.90;;;;;;5092879;28;20121;-69
2022/04/04 01:53:54;;;;;;;;;;;-3.60;99.90;;;;;;5108337;28;19970;-69
2022/04/04 01:56:21;;;;;;;;;;;-3.60;99.90;;;;;;5111657;28;19931;-69
2022/04/04 01:58:48;;;;;;;;;;;-3.50;99.90;;;;;;5100753;28;19924;-70
2022/04/04 02:01:15;;;;;;;;;;;-3.40;99.90;;;;;;5096238;28;19924;-69
2022/04/04 02:03:44;;;;;;;;;;;-3.20;99.90;;;;;;5100989;28;19924;-69
2022/04/04 02:06:10;;;;;;;;;;;-3.10;99.90;;;;;;5100717;28;19932;-69
2022/04/04 02:08:38;;;;;;;;;;;-3.10;99.90;;;;;;5079932;28;20010;-69
2022/04/04 02:11:05;;;;;;;;;;;-3.00;99.90;;;;;;5100677;28;20015;-69
2022/04/04 02:13:31;;;;;;;;;;;-3.00;99.90;;;;;;5103859;28;19971;-69
2022/04/04 02:16:01;;;;;;;;;;;-2.90;99.90;;;;;;5104582;28;20038;-69
2022/04/04 02:18:28;;;;;;;;;;;-2.80;99.90;;;;;;5097298;28;19934;-69
2022/04/04 02:20:55;;;;;;;;;;;-2.70;99.90;;;;;;5101863;28;19923;-69
2022/04/04 02:23:21;;;;;;;;;;;-2.70;99.90;;;;;;5079687;28;20015;-69
2022/04/04 02:25:50;;;;;;;;;;;-2.60;99.90;;;;;;5101733;28;19927;-69
2022/04/04 02:28:17;;;;;;;;;;;-2.50;99.90;;;;;;5099114;28;20670;-69
2022/04/04 02:30:44;;;;;;;;;;;-2.50;99.90;;;;;;5095544;28;20110;-69
2022/04/04 02:33:18;;;;;;;;;;;-2.40;99.90;;;;;;5094202;28;19930;-69
2022/04/04 02:35:45;;;;;;;;;;;-2.40;99.90;;;;;;5096332;28;19930;-69
2022/04/04 02:38:13;;;;;;;;;;;-2.40;99.90;;;;;;5094537;28;19958;-69
2022/04/04 02:40:40;;;;;;;;;;;-2.30;99.90;;;;;;5097302;28;20088;-69
2022/04/04 02:43:07;;;;;;;;;;;-2.30;99.90;;;;;;5103412;28;19930;-69
2022/04/04 02:45:34;;;;;;;;;;;-2.20;99.90;;;;;;5084919;28;19958;-69
2022/04/04 02:48:01;;;;;;;;;;;-2.20;99.90;;;;;;5102074;27;19928;-69
2022/04/04 02:50:28;;;;;;;;;;;-2.10;99.90;;;;;;5100884;28;19924;-69
2022/04/04 02:52:54;;;;;;;;;;;-2.10;99.90;;;;;;5088675;28;20010;-69
2022/04/04 02:58:07;;;;;;;;;;;-2.00;99.90;;;;;;5099099;28;19954;-69
2022/04/04 03:00:34;;;;;;;;;;;-2.00;99.90;;;;;;5091392;28;20023;-69
2022/04/04 03:03:00;;;;;;;;;;;-1.90;99.90;;;;;;5100655;28;20014;-69
2022/04/04 03:05:28;;;;;;;;;;;-1.90;99.90;;;;;;5096199;28;19928;-69
2022/04/04 03:07:55;;;;;;;;;;;-1.90;99.90;;;;;;5097712;28;20040;-69
2022/04/04 03:10:21;;;;;;;;;;;-1.90;99.90;;;;;;5089009;28;19924;-69
2022/04/04 03:12:53;;;;;;;;;;;-1.90;99.90;;;;;;5098958;28;20018;-68
2022/04/04 03:15:23;;;;;;;;;;;-1.90;99.90;;;;;;5092274;28;19932;-68
2022/04/04 03:17:54;;;;;;;;;;;-1.80;99.90;;;;;;5104047;27;19924;-69
2022/04/04 03:20:25;;;;;;;;;;;-1.70;99.90;;;;;;5076868;28;19934;-69
2022/04/04 03:22:53;;;;;;;;;;;-1.70;99.90;;;;;;5102715;28;20289;-70
2022/04/04 03:25:23;;;;;;;;;;;-1.60;99.90;;;;;;5099265;28;20393;-69
2022/04/04 03:27:49;;;;;;;;;;;-1.60;99.90;;;;;;5102159;28;20086;-69
2022/04/04 03:30:18;;;;;;;;;;;-1.60;99.90;;;;;;5094992;28;19931;-69
2022/04/04 03:32:59;;;;;;;;;;;-1.50;99.90;;;;;;5098215;28;19951;-67
2022/04/04 03:35:27;;;;;;;;;;;-1.50;99.90;;;;;;5100246;28;20714;-68
2022/04/04 03:37:57;;;;;;;;;;;-1.50;99.90;;;;;;5099028;28;19970;-68
2022/04/04 03:40:24;;;;;;;;;;;-1.50;99.90;;;;;;5094582;28;20864;-68
2022/04/04 03:42:52;;;;;;;;;;;-1.40;99.90;;;;;;5092276;27;19934;-68
2022/04/04 03:45:19;;;;;;;;;;;-1.40;99.90;;;;;;5094330;28;20010;-68
2022/04/04 03:47:47;;;;;;;;;;;-1.40;99.90;;;;;;5096856;28;20390;-68
2022/04/04 03:50:14;;;;;;;;;;;-1.40;99.90;;;;;;5099564;28;19924;-68
2022/04/04 03:52:42;;;;;;;;;;;-1.40;99.90;;;;;;5089973;28;20359;-68
2022/04/04 03:55:14;;;;;;;;;;;-1.40;99.90;;;;;;5103022;28;19924;-68
2022/04/04 03:57:41;;;;;;;;;;;-1.40;99.90;;;;;;5098568;28;19930;-68
2022/04/04 04:00:08;;;;;;;;;;;-1.40;99.90;;;;;;5101622;28;20019;-68
2022/04/04 04:02:35;;;;;;;;;;;-1.40;99.90;;;;;;5101110;28;19953;-67
2022/04/04 04:05:02;;;;;;;;;;;-1.40;99.90;;;;;;5101282;28;20058;-67
2022/04/04 04:07:35;;;;;;;;;;;-1.40;99.90;;;;;;5104642;28;20400;-67
2022/04/04 04:10:05;;;;;;;;;;;-1.40;99.90;;;;;;5105194;28;19971;-68
2022/04/04 04:12:32;;;;;;;;;;;-1.40;99.90;;;;;;5098930;28;19930;-67
2022/04/04 04:14:58;;;;;;;;;;;-1.30;99.90;;;;;;5104707;28;19959;-67
2022/04/04 04:17:25;;;;;;;;;;;-1.30;99.90;;;;;;5097012;28;19932;-67
2022/04/04 04:22:39;;;;;;;;;;;-1.30;99.90;;;;;;5098330;28;19967;-67
2022/04/04 04:25:08;;;;;;;;;;;-1.30;99.90;;;;;;5106560;28;19967;-68
2022/04/04 04:27:35;;;;;;;;;;;-1.30;99.90;;;;;;5097713;28;19924;-67
2022/04/04 04:30:03;;;;;;;;;;;-1.30;99.90;;;;;;5096377;28;19930;-68
2022/04/04 04:32:30;;;;;;;;;;;-1.40;99.90;;;;;;5106160;28;19931;-67
2022/04/04 04:34:57;;;;;;;;;;;-1.40;99.90;;;;;;5103212;28;19931;-68
2022/04/04 04:37:26;;;;;;;;;;;-1.50;99.90;;;;;;5105194;28;19928;-67
2022/04/04 04:39:53;;;;;;;;;;;-1.50;99.90;;;;;;5100293;28;19924;-68
2022/04/04 04:42:19;;;;;;;;;;;-1.60;99.90;;;;;;5109918;28;19927;-68
2022/04/04 04:44:46;;;;;;;;;;;-1.70;99.90;;;;;;5083434;28;19935;-67
2022/04/04 04:47:15;;;;;;;;;;;-1.70;99.90;;;;;;5106510;28;19959;-68
2022/04/04 04:49:42;;;;;;;;;;;-1.90;99.90;;;;;;5110897;27;19923;-68
2022/04/04 04:52:09;;;;;;;;;;;-1.90;99.90;;;;;;5105082;27;19928;-68
2022/04/04 04:54:36;;;;;;;;;;;-2.00;99.90;;;;;;5095552;28;20034;-68
2022/04/04 04:57:03;;;;;;;;;;;-2.10;99.90;;;;;;5106641;27;20454;-68
2022/04/04 04:59:30;;;;;;;;;;;-2.10;99.90;;;;;;5097676;28;19936;-68
2022/04/04 05:01:56;;;;;;;;;;;-2.10;99.90;;;;;;5105488;28;19959;-67
2022/04/04 05:04:23;;;;;;;;;;;-2.20;99.90;;;;;;5110463;28;20014;-68
2022/04/04 05:06:50;;;;;;;;;;;-2.10;99.90;;;;;;5091484;28;19932;-67
2022/04/04 05:09:19;;;;;;;;;;;-2.10;99.90;;;;;;5105302;28;20483;-68
2022/04/04 05:11:47;;;;;;;;;;;-2.10;99.90;;;;;;5086997;28;20455;-68
2022/04/04 05:14:16;;;;;;;;;;;-2.10;99.90;;;;;;5103318;28;20008;-68
2022/04/04 05:16:44;;;;;;;;;;;-2.20;99.90;;;;;;5089656;28;19924;-67
2022/04/04 05:19:11;;;;;;;;;;;-2.20;99.90;;;;;;5108263;28;19971;-68
2022/04/04 05:21:39;;;;;;;;;;;-2.10;99.90;;;;;;5103389;28;20400;-68
2022/04/04 05:24:06;;;;;;;;;;;-2.10;99.90;;;;;;5096489;28;19967;-67
2022/04/04 05:26:33;;;;;;;;;;;-2.10;99.90;;;;;;5108421;27;19939;-67
2022/04/04 05:29:00;;;;;;;;;;;-2.10;99.90;;;;;;5110862;28;19951;-69
2022/04/04 05:31:30;;;;;;;;;;;-2.00;99.90;;;;;;5102748;28;19975;-67
2022/04/04 05:33:58;;;;;;;;;;;-2.00;99.90;;;;;;5113881;28;20419;-68
2022/04/04 05:36:26;;;;;;;;;;;-2.00;99.90;;;;;;5100270;28;20006;-68
2022/04/04 05:38:54;;;;;;;;;;;-1.90;99.90;;;;;;5075408;28;19959;-68
2022/04/04 05:41:21;;;;;;;;;;;-1.80;99.90;;;;;;5107054;28;20014;-68
2022/04/04 05:43:48;;;;;;;;;;;-1.80;99.90;;;;;;5106697;28;20007;-68
2022/04/04 05:46:16;;;;;;;;;;;-1.70;99.90;;;;;;5099363;28;19938;-68
2022/04/04 05:48:43;;;;;;;;;;;-1.60;99.90;;;;;;5094220;28;19924;-67
2022/04/04 05:51:10;;;;;;;;;;;-1.50;99.90;;;;;;5101276;28;20378;-67
2022/04/04 05:53:38;;;;;;;;;;;-1.40;99.90;;;;;;5088794;27;19928;-68
2022/04/04 05:56:05;;;;;;;;;;;-1.30;99.90;;;;;;5094560;28;20467;-68
2022/04/04 05:58:32;;;;;;;;;;;-1.20;99.90;;;;;;5104080;28;19979;-67
2022/04/04 06:00:59;;;;;;;;;;;-1.10;99.90;;;;;;5098919;28;19959;-68
2022/04/04 06:03:26;;;;;;;;;;;-1.00;99.90;;;;;;5103035;28;19932;-68
2022/04/04 06:05:54;;;;;;;;;;;-0.90;99.90;;;;;;5104018;28;21212;-68
2022/04/04 06:08:21;;;;;;;;;;;-0.70;99.90;;;;;;5084919;28;20353;-68
2022/04/04 06:10:47;;;;;;;;;;;-0.30;99.90;;;;;;5084656;28;19930;-68
2022/04/04 06:13:15;;;;;;;;;;;0.20;99.90;;;;;;5108126;28;19923;-68
2022/04/04 06:15:43;;;;;;;;;;;0.60;99.90;;;;;;5099174;28;19924;-68
2022/04/04 06:18:12;;;;;;;;;;;0.70;99.90;;;;;;5104653;28;19928;-69
2022/04/04 06:20:38;;;;;;;;;;;0.50;99.90;;;;;;5098538;28;20026;-68
2022/04/04 06:23:06;;;;;;;;;;;0.30;99.90;;;;;;5096244;28;20011;-68
2022/04/04 06:25:48;;;;;;;;;;;0.30;99.90;;;;;;5102252;28;19935;-68
2022/04/04 06:28:15;;;;;;;;;;;0.30;99.90;;;;;;5106481;28;19923;-69
2022/04/04 06:30:43;;;;;;;;;;;0.40;99.90;;;;;;5083613;28;19982;-68
2022/04/04 06:33:10;;;;;;;;;;;0.60;99.90;;;;;;5103513;28;19930;-68
2022/04/04 06:35:36;;;;;;;;;;;0.80;99.90;;;;;;5095683;28;19924;-66
2022/04/04 06:38:03;;;;;;;;;;;0.90;99.90;;;;;;5079178;28;19923;-67
2022/04/04 06:40:33;;;;;;;;;;;1.00;99.90;;;;;;5102998;28;20370;-67
2022/04/04 06:42:59;;;;;;;;;;;1.00;99.90;;;;;;5103780;27;20014;-68
2022/04/04 06:45:26;;;;;;;;;;;1.30;99.90;;;;;;5099894;28;20014;-69
2022/04/04 06:47:55;;;;;;;;;;;1.60;99.90;;;;;;5097012;28;19924;-68
2022/04/04 06:50:23;;;;;;;;;;;1.70;99.90;;;;;;5098148;28;19941;-68
2022/04/04 06:52:52;;;;;;;;;;;1.90;99.90;;;;;;5106032;28;19934;-68
2022/04/04 06:55:39;;;;;;;;;;;2.40;99.90;;;;;;5100231;28;19928;-68
2022/04/04 06:58:06;;;;;;;;;;;3.10;99.90;;;;;;5101333;28;19928;-68
2022/04/04 07:00:34;;;;;;;;;;;3.50;99.90;;;;;;5094347;28;19932;-68
2022/04/04 07:03:01;;;;;;;;;;;3.60;99.90;;;;;;5104374;28;19927;-68
2022/04/04 07:05:28;;;;;;;;;;;3.60;99.90;;;;;;5106411;28;19987;-68
2022/04/04 07:07:55;;;;;;;;;;;4.00;99.90;;;;;;5097478;28;19924;-66
2022/04/04 07:10:21;;;;;;;;;;;3.70;99.90;;;;;;5092903;28;19931;-65
2022/04/04 07:12:49;;;;;;;;;;;3.40;99.90;;;;;;5091490;28;19928;-66
2022/04/04 07:15:15;;;;;;;;;;;3.40;99.90;;;;;;5096112;27;20387;-66
2022/04/04 07:17:43;;;;;;;;;;;3.20;99.90;;;;;;5095321;28;20026;-66
2022/04/04 07:20:12;;;;;;;;;;;3.30;99.90;;;;;;5096629;28;19923;-67
2022/04/04 07:22:40;;;;;;;;;;;3.60;99.90;;;;;;5103693;28;20011;-66
2022/04/04 07:25:08;;;;;;;;;;;3.70;99.90;;;;;;5088067;28;20370;-66
2022/04/04 07:27:35;;;;;;;;;;;3.80;99.90;;;;;;5076954;28;19971;-66
2022/04/04 07:30:03;;;;;;;;;;;3.90;99.90;;;;;;5101770;28;19955;-66
2022/04/04 07:32:29;;;;;;;;;;;4.00;99.90;;;;;;5100810;28;20497;-67
2022/04/04 07:34:56;;;;;;;;;;;3.90;99.90;;;;;;5103379;28;20003;-66
2022/04/04 07:37:23;;;;;;;;;;;3.70;99.90;;;;;;5101542;28;19923;-66
2022/04/04 07:39:50;;;;;;;;;;;3.90;99.90;;;;;;5103715;28;19946;-66
2022/04/04 07:42:16;;;;;;;;;;;3.80;99.90;;;;;;5101119;28;20362;-66
2022/04/04 07:44:43;;;;;;;;;;;4.00;99.90;;;;;;5096749;28;19938;-67
2022/04/04 07:47:10;;;;;;;;;;;4.10;99.90;;;;;;5095252;28;19928;-67
2022/04/04 07:49:37;;;;;;;;;;;4.50;99.90;;;;;;5097493;28;19969;-68
2022/04/04 07:52:03;;;;;;;;;;;4.80;99.90;;;;;;5097893;28;19931;-67
2022/04/04 07:54:30;;;;;;;;;;;4.90;99.90;;;;;;5100015;28;19938;-67
2022/04/04 07:56:57;;;;;;;;;;;5.10;99.90;;;;;;5098296;28;20625;-67
2022/04/04 07:59:24;;;;;;;;;;;5.20;99.90;;;;;;5097206;28;20576;-67
2022/04/04 08:01:53;;;;;;;;;;;4.90;99.90;;;;;;5098643;28;19923;-67
2022/04/04 08:04:21;;;;;;;;;;;4.60;99.90;;;;;;5104972;27;19931;-68
2022/04/04 08:06:48;;;;;;;;;;;4.70;99.90;;;;;;5099812;28;20011;-68
2022/04/04 08:09:15;;;;;;;;;;;4.80;99.90;;;;;;5083187;28;21399;-67
2022/04/04 08:11:42;;;;;;;;;;;4.60;99.90;;;;;;5099659;27;19951;-67
2022/04/04 08:14:09;;;;;;;;;;;4.50;99.90;;;;;;5085922;28;19946;-67
2022/04/04 08:16:36;;;;;;;;;;;4.80;99.90;;;;;;5097652;28;19923;-67
2022/04/04 08:19:03;;;;;;;;;;;5.20;99.90;;;;;;5100018;28;20007;-68
2022/04/04 08:21:30;;;;;;;;;;;5.70;99.90;;;;;;5096981;28;19938;-68
2022/04/04 08:23:57;;;;;;;;;;;5.90;99.90;;;;;;5077109;28;20019;-68
2022/04/04 08:26:23;;;;;;;;;;;6.20;99.90;;;;;;5098046;28;19928;-68
2022/04/04 08:28:50;;;;;;;;;;;6.30;99.90;;;;;;5079536;28;20426;-67
2022/04/04 08:31:17;;;;;;;;;;;6.40;99.90;;;;;;5094287;28;20545;-68
2022/04/04 08:33:43;;;;;;;;;;;6.50;99.90;;;;;;5095737;28;19959;-68
2022/04/04 08:36:13;;;;;;;;;;;6.80;99.90;;;;;;5101157;28;19928;-68
2022/04/04 08:38:40;;;;;;;;;;;7.40;99.90;;;;;;5108316;28;19934;-68
2022/04/04 08:41:10;;;;;;;;;;;8.10;99.90;;;;;;5114929;28;19930;-68
2022/04/04 08:43:42;;;;;;;;;;;8.80;99.90;;;;;;5095118;28;19992;-66
2022/04/04 08:46:09;;;;;;;;;;;9.40;99.90;;;;;;5094863;28;19950;-68
2022/04/04 08:48:37;;;;;;;;;;;9.60;99.90;;;;;;5091229;28;20000;-68
2022/04/04 08:51:09;;;;;;;;;;;9.90;99.90;;;;;;5096026;28;19924;-69
2022/04/04 08:53:37;;;;;;;;;;;10.10;99.90;;;;;;5093357;28;20028;-68
2022/04/04 08:56:09;;;;;;;;;;;9.90;99.90;;;;;;5096806;28;20022;-68
2022/04/04 08:58:36;;;;;;;;;;;9.50;99.90;;;;;;5101952;28;19935;-68
2022/04/04 09:01:03;;;;;;;;;;;9.30;99.90;;;;;;5097006;28;19967;-68
2022/04/04 09:03:31;;;;;;;;;;;9.10;99.50;;;;;;5078169;28;19964;-68
2022/04/04 09:05:59;;;;;;;;;;;8.70;99.70;;;;;;5104017;28;19959;-68
2022/04/04 09:08:26;;;;;;;;;;;8.80;99.90;;;;;;5100513;28;20018;-70
2022/04/04 09:10:56;;;;;;;;;;;9.00;99.70;;;;;;5087264;28;19927;-69
2022/04/04 09:13:25;;;;;;;;;;;9.40;99.00;;;;;;5074951;28;19968;-68
2022/04/04 09:16:02;;;;;;;;;;;9.10;98.20;;;;;;5105291;28;20437;-68
2022/04/04 09:18:39;;;;;;;;;;;9.30;99.30;;;;;;5098500;28;19955;-67
2022/04/04 09:21:06;;;;;;;;;;;9.40;97.80;;;;;;5095875;28;19928;-68
2022/04/04 09:23:33;;;;;;;;;;;9.40;98.30;;;;;;5102181;27;20446;-67
2022/04/04 09:26:01;;;;;;;;;;;9.60;97.60;;;;;;5107562;28;19959;-68
2022/04/04 09:28:27;;;;;;;;;;;9.80;96.70;;;;;;5097812;28;19923;-68
2022/04/04 09:31:07;;;;;;;;;;;9.90;97.50;;;;;;5082649;28;20574;-68
2022/04/04 09:33:38;;;;;;;;;;;10.20;97.10;;;;;;5104751;28;19989;-68
2022/04/04 09:36:09;;;;;;;;;;;10.80;96.70;;;;;;5107276;28;19977;-68
2022/04/04 09:38:36;;;;;;;;;;;10.90;95.20;;;;;;5104516;28;19966;-68
2022/04/04 09:41:18;;;;;;;;;;;11.00;96.10;;;;;;5104869;28;19934;-68
2022/04/04 09:43:48;;;;;;;;;;;11.00;95.20;;;;;;5104745;28;19924;-68
2022/04/04 09:46:15;;;;;;;;;;;10.40;95.10;;;;;;5096627;27;19931;-68
2022/04/04 09:49:00;;;;;;;;;;;10.40;95.30;;;;;;5095922;28;20435;-68
2022/04/04 09:51:36;;;;;;;;;;;10.60;95.90;;;;;;5096463;28;19976;-68
2022/04/04 09:54:03;;;;;;;;;;;11.30;95.30;;;;;;5086511;28;19924;-68
2022/04/04 09:56:32;;;;;;;;;;;11.70;95.70;;;;;;5103645;28;20021;-69
2022/04/04 09:59:02;;;;;;;;;;;11.90;95.20;;;;;;5099839;27;20450;-68
2022/04/04 10:01:30;;;;;;;;;;;12.00;94.20;;;;;;5096650;28;19923;-68
2022/04/04 10:03:57;;;;;;;;;;;11.70;93.90;;;;;;5077669;28;19972;-68
2022/04/04 10:06:26;;;;;;;;;;;11.60;93.50;;;;;;5092459;27;20446;-67
2022/04/04 10:08:55;;;;;;;;;;;11.70;93.00;;;;;;5111061;27;19924;-69
2022/04/04 10:11:22;;;;;;;;;;;11.40;92.90;;;;;;5103304;27;19924;-68
2022/04/04 10:13:49;;;;;;;;;;;11.30;93.80;;;;;;5093893;27;20015;-69
2022/04/04 10:16:16;;;;;;;;;;;11.10;93.30;;;;;;5099799;27;20026;-69
2022/04/04 10:18:43;;;;;;;;;;;11.30;93.50;;;;;;5105973;27;19931;-68
2022/04/04 10:21:10;;;;;;;;;;;11.70;93.60;;;;;;5109974;28;19957;-69
2022/04/04 10:23:38;;;;;;;;;;;12.20;93.30;;;;;;5077253;28;19931;-69
2022/04/04 10:26:07;;;;;;;;;;;12.50;92.10;;;;;;5099656;28;19923;-68
2022/04/04 10:28:35;;;;;;;;;;;12.60;92.40;;;;;;5076798;28;19924;-68
2022/04/04 10:31:12;;;;;;;;;;;12.70;91.80;;;;;;5099627;28;20345;-68
2022/04/04 10:33:39;;;;;;;;;;;12.80;91.00;;;;;;5102000;28;19924;-68
2022/04/04 10:36:07;;;;;;;;;;;12.80;92.20;;;;;;5093526;28;20359;-69
2022/04/04 10:38:35;;;;;;;;;;;13.20;91.20;;;;;;5102898;28;19930;-69
2022/04/04 10:41:05;;;;;;;;;;;13.40;90.80;;;;;;5104365;28;19931;-68
2022/04/04 10:43:33;;;;;;;;;;;13.50;90.60;;;;;;5096644;28;19924;-69
2022/04/04 10:46:04;;;;;;;;;;;13.20;91.40;;;;;;5092542;28;20531;-69
2022/04/04 10:48:36;;;;;;;;;;;13.10;90.00;;;;;;5075185;28;20550;-68
2022/04/04 10:51:15;;;;;;;;;;;13.00;91.20;;;;;;5101803;27;19962;-68
2022/04/04 10:53:43;;;;;;;;;;;13.10;91.40;;;;;;5103436;28;20003;-68
2022/04/04 10:56:15;;;;;;;;;;;12.90;90.00;;;;;;5100661;28;20030;-68
2022/04/04 10:58:41;;;;;;;;;;;12.60;90.30;;;;;;5098334;28;20360;-69
2022/04/04 11:01:12;;;;;;;;;;;12.50;90.30;;;;;;5105084;28;19995;-68
2022/04/04 11:03:39;;;;;;;;;;;12.80;90.70;;;;;;5096584;28;20019;-69
2022/04/04 11:09:16;;;;;;;;;;;13.10;90.80;;;;;;5036958;28;19928;-69
2022/04/04 11:12:09;;;;;;;;;;;13.20;90.50;;;;;;5091063;27;19955;-69
2022/04/04 11:14:46;;;;;;;;;;;12.80;90.20;;;;;;5091866;27;19971;-69
2022/04/04 11:17:19;;;;;;;;;;;12.80;90.40;;;;;;5089733;28;20466;-68
2022/04/04 11:19:49;;;;;;;;;;;13.00;89.90;;;;;;5081407;28;19928;-68
2022/04/04 11:22:17;;;;;;;;;;;13.20;90.20;;;;;;5098705;28;19924;-69
2022/04/04 11:24:48;;;;;;;;;;;13.00;90.10;;;;;;5099663;28;20018;-69
2022/04/04 11:27:14;;;;;;;;;;;12.90;90.00;;;;;;5082384;27;19932;-69
2022/04/04 11:29:41;;;;;;;;;;;12.80;90.20;;;;;;5104158;27;19942;-69
2022/04/04 11:32:15;;;;;;;;;;;13.00;89.90;;;;;;5087465;28;19930;-68
2022/04/04 11:34:43;;;;;;;;;;;12.60;88.80;;;;;;5077840;28;19927;-69
2022/04/04 11:37:18;;;;;;;;;;;12.70;90.70;;;;;;5100709;27;19927;-69
2022/04/04 11:39:45;;;;;;;;;;;13.20;90.00;;;;;;5088471;28;20011;-69
2022/04/04 11:42:12;;;;;;;;;;;13.30;89.80;;;;;;5098335;28;20392;-69
2022/04/04 11:44:48;;;;;;;;;;;13.20;88.80;;;;;;5104997;28;19924;-69
2022/04/04 11:47:17;;;;;;;;;;;12.80;87.20;;;;;;5101317;27;20543;-69
2022/04/04 11:49:44;;;;;;;;;;;13.00;90.00;;;;;;5100982;27;19966;-69
2022/04/04 11:52:15;;;;;;;;;;;12.90;89.40;;;;;;5101372;27;19927;-69
2022/04/04 11:54:45;;;;;;;;;;;13.00;90.00;;;;;;5107217;27;19962;-69
2022/04/04 11:57:12;;;;;;;;;;;13.50;89.30;;;;;;5096532;28;20007;-68
2022/04/04 11:59:46;;;;;;;;;;;13.80;87.50;;;;;;5100822;28;19924;-69
2022/04/04 12:02:13;;;;;;;;;;;13.70;89.70;;;;;;5103675;27;20016;-69
2022/04/04 12:04:41;;;;;;;;;;;13.60;88.10;;;;;;5101118;28;19931;-68
2022/04/04 12:07:09;;;;;;;;;;;13.80;88.20;;;;;;5101724;28;19924;-68
2022/04/04 12:09:36;;;;;;;;;;;14.00;87.20;;;;;;5080957;28;19930;-69
2022/04/04 12:12:07;;;;;;;;;;;13.70;86.70;;;;;;5083147;28;19923;-68
2022/04/04 12:14:45;;;;;;;;;;;13.30;86.30;;;;;;5096209;28;19924;-69
2022/04/04 12:17:12;;;;;;;;;;;13.20;87.00;;;;;;5098757;28;19924;-68
2022/04/04 12:19:42;;;;;;;;;;;12.80;87.50;;;;;;5098854;28;20410;-69
2022/04/04 12:25:05;;;;;;;;;;;11.80;86.80;;;;;;5101045;28;19924;-68
2022/04/04 12:27:31;;;;;;;;;;;11.70;89.90;;;;;;5101904;28;19970;-67
2022/04/04 12:29:59;;;;;;;;;;;11.90;87.60;;;;;;5100215;28;20632;-68
2022/04/04 12:32:26;;;;;;;;;;;11.80;87.30;;;;;;5097175;28;19982;-68
2022/04/04 12:34:57;;;;;;;;;;;11.60;87.10;;;;;;5094559;28;19932;-68
2022/04/04 12:37:34;;;;;;;;;;;11.30;88.20;;;;;;5081833;28;20543;-68
2022/04/04 12:40:20;;;;;;;;;;;10.90;87.70;;;;;;5099295;28;19942;-68
2022/04/04 12:42:47;;;;;;;;;;;10.60;88.10;;;;;;5092563;28;19924;-70
2022/04/04 12:45:16;;;;;;;;;;;10.40;89.40;;;;;;5094509;28;19934;-69
2022/04/04 12:47:52;;;;;;;;;;;10.40;90.10;;;;;;5099215;27;19924;-69
2022/04/04 12:50:21;;;;;;;;;;;10.30;89.30;;;;;;5103631;28;19932;-70
2022/04/04 12:52:57;;;;;;;;;;;10.40;90.20;;;;;;5103320;27;20046;-70
2022/04/04 12:55:24;;;;;;;;;;;10.70;89.50;;;;;;5086753;28;19928;-69
2022/04/04 12:57:51;;;;;;;;;;;10.70;90.00;;;;;;5109275;27;19931;-69
2022/04/04 13:00:25;;;;;;;;;;;10.70;89.90;;;;;;5103667;28;19931;-69
2022/04/04 13:02:52;;;;;;;;;;;10.60;89.60;;;;;;5086301;28;20014;-69
2022/04/04 13:05:18;;;;;;;;;;;10.60;90.60;;;;;;5099514;28;19951;-69
2022/04/04 13:07:49;;;;;;;;;;;10.60;89.20;;;;;;5106784;27;19931;-68
2022/04/04 13:10:16;;;;;;;;;;;10.30;88.80;;;;;;5103878;27;19951;-69
2022/04/04 13:12:43;;;;;;;;;;;10.10;89.30;;;;;;5106902;28;19924;-68
2022/04/04 13:15:10;;;;;;;;;;;10.00;90.10;;;;;;5112655;27;19931;-70
2022/04/04 13:17:40;;;;;;;;;;;9.90;91.10;;;;;;5105958;27;20010;-69
2022/04/04 13:20:14;;;;;;;;;;;9.90;90.60;;;;;;5099532;27;19930;-69
2022/04/04 13:22:41;;;;;;;;;;;9.80;91.10;;;;;;5101082;27;20310;-69
2022/04/04 13:25:08;;;;;;;;;;;9.80;91.30;;;;;;5107791;27;20562;-69
2022/04/04 13:27:37;;;;;;;;;;;9.90;91.20;;;;;;5104209;27;19939;-69
2022/04/04 13:30:03;;;;;;;;;;;9.90;91.20;;;;;;5107086;27;19927;-69
2022/04/04 13:32:37;;;;;;;;;;;9.60;91.10;;;;;;5097420;27;19928;-69
2022/04/04 13:35:04;;;;;;;;;;;9.50;91.50;;;;;;5102729;28;19924;-69
2022/04/04 13:37:31;;;;;;;;;;;9.30;91.20;;;;;;5098301;27;19932;-68
2022/04/04 13:40:01;;;;;;;;;;;9.30;91.40;;;;;;5108518;27;19923;-70
2022/04/04 13:42:27;;;;;;;;;;;9.40;91.80;;;;;;5089948;28;20371;-69
2022/04/04 13:44:54;;;;;;;;;;;9.40;91.80;;;;;;5104888;28;19924;-69
2022/04/04 13:47:21;;;;;;;;;;;9.30;92.50;;;;;;5107810;28;20379;-68
2022/04/04 13:49:48;;;;;;;;;;;9.10;92.40;;;;;;5105202;28;20050;-69
2022/04/04 13:52:19;;;;;;;;;;;8.80;92.40;;;;;;5100962;28;20501;-69
2022/04/04 13:54:46;;;;;;;;;;;8.90;92.90;;;;;;5102721;28;20020;-69
2022/04/04 13:57:13;;;;;;;;;;;9.10;93.50;;;;;;5098776;28;19967;-69
2022/04/04 13:59:39;;;;;;;;;;;9.10;92.80;;;;;;5086397;28;20418;-69
2022/04/04 14:02:09;;;;;;;;;;;9.00;93.40;;;;;;5108963;28;19924;-68
2022/04/04 14:04:37;;;;;;;;;;;9.00;93.40;;;;;;5109296;28;19938;-69
2022/04/04 14:07:06;;;;;;;;;;;9.00;93.70;;;;;;5106748;28;19924;-69
2022/04/04 14:09:33;;;;;;;;;;;9.00;93.60;;;;;;5089413;28;20022;-69
2022/04/04 14:12:03;;;;;;;;;;;8.80;94.70;;;;;;5104726;28;19985;-68
2022/04/04 14:14:30;;;;;;;;;;;8.20;95.20;;;;;;5086004;28;20028;-69
2022/04/04 14:17:00;;;;;;;;;;;8.10;96.00;;;;;;5104494;28;20400;-67
2022/04/04 14:19:27;;;;;;;;;;;8.10;96.10;;;;;;5100051;28;19924;-69
2022/04/04 14:21:54;;;;;;;;;;;8.10;96.80;;;;;;5099377;28;19950;-70
2022/04/04 14:24:21;;;;;;;;;;;8.10;97.70;;;;;;5105365;27;20022;-69
2022/04/04 14:26:48;;;;;;;;;;;8.00;98.50;;;;;;5097577;28;20012;-68
2022/04/04 14:29:14;;;;;;;;;;;7.90;98.00;;;;;;5107794;28;20010;-69
2022/04/04 14:31:41;;;;;;;;;;;7.90;98.40;;;;;;5097367;28;20373;-69
2022/04/04 14:34:08;;;;;;;;;;;7.70;98.70;;;;;;5091047;28;20038;-68
2022/04/04 14:36:35;;;;;;;;;;;7.90;99.00;;;;;;5095745;28;20362;-69
2022/04/04 14:39:03;;;;;;;;;;;7.70;99.90;;;;;;5083375;28;19931;-69